createdAt,value
2022-08-07T00:00:15.291Z,2.40
2022-08-07T00:02:45.194Z,2.27
2022-08-07T00:05:12.069Z,2.00
2022-08-07T00:07:41.123Z,1.87
2022-08-07T00:10:26.257Z,2.10
2022-08-07T00:12:57.813Z,2.30
2022-08-07T00:15:37.906Z,2.10
2022-08-07T00:18:19.291Z,1.90
2022-08-07T00:20:51.230Z,1.87
2022-08-07T00:23:21.480Z,2.00
2022-08-07T00:25:58.153Z,1.47
2022-08-07T00:28:31.774Z,1.90
2022-08-07T00:31:12.365Z,1.90
2022-08-07T00:33:40.330Z,2.07
2022-08-07T00:36:09.247Z,2.00
2022-08-07T00:38:37.111Z,1.73
2022-08-07T00:41:10.074Z,2.20
2022-08-07T00:44:02.061Z,1.90
2022-08-07T00:46:30.036Z,3.27
2022-08-07T00:49:02.070Z,3.30
2022-08-07T00:51:58.391Z,2.73
2022-08-07T00:54:19.638Z,2.47
2022-08-07T00:56:49.561Z,2.97
2022-08-07T00:59:18.126Z,3.13
2022-08-07T01:01:48.430Z,3.13
2022-08-07T01:04:24.733Z,3.20
2022-08-07T01:06:51.510Z,3.07
2022-08-07T01:10:03.860Z,2.53
2022-08-07T01:12:29.140Z,2.00
2022-08-07T01:14:57.133Z,1.97
2022-08-07T01:17:29.644Z,1.40
2022-08-07T01:20:08.397Z,1.73
2022-08-07T01:22:36.834Z,1.53
2022-08-07T01:25:20.765Z,2.10
2022-08-07T01:27:51.656Z,2.07
2022-08-07T01:30:18.931Z,1.90
2022-08-07T01:32:45.672Z,2.03
2022-08-07T01:35:12.884Z,1.40
2022-08-07T01:37:43.699Z,1.27
2022-08-07T01:40:14.780Z,1.20
2022-08-07T01:42:57.340Z,1.40
2022-08-07T01:45:37.058Z,1.37
2022-08-07T01:48:29.523Z,1.30
2022-08-07T01:50:57.630Z,1.30
2022-08-07T01:54:09.280Z,1.23
2022-08-07T01:56:17.869Z,1.50
2022-08-07T01:59:03.077Z,1.70
2022-08-07T02:02:01.599Z,1.30
2022-08-07T02:04:28.599Z,1.27
2022-08-07T02:06:58.926Z,1.57
2022-08-07T02:09:51.885Z,1.60
2022-08-07T02:12:17.794Z,1.60
2022-08-07T02:14:51.328Z,1.93
2022-08-07T02:17:24.718Z,1.60
2022-08-07T02:20:07.445Z,1.33
2022-08-07T02:22:43.827Z,1.57
2022-08-07T02:25:18.080Z,1.20
2022-08-07T02:27:51.946Z,1.50
2022-08-07T02:30:19.624Z,1.30
2022-08-07T02:33:08.893Z,1.23
2022-08-07T02:36:30.778Z,1.43
2022-08-07T02:38:31.877Z,1.43
2022-08-07T02:41:00.555Z,1.40
2022-08-07T02:43:28.178Z,1.20
2022-08-07T02:46:01.775Z,1.27
2022-08-07T02:48:30.118Z,1.10
2022-08-07T02:51:01.497Z,1.30
2022-08-07T02:53:38.704Z,1.60
2022-08-07T02:56:17.425Z,1.30
2022-08-07T02:58:48.309Z,1.53
2022-08-07T03:01:19.030Z,1.40
2022-08-07T03:04:03.482Z,1.07
2022-08-07T03:06:35.015Z,1.33
2022-08-07T03:09:03.202Z,1.70
2022-08-07T03:11:32.633Z,1.80
2022-08-07T03:14:01.676Z,1.20
2022-08-07T03:16:30.461Z,1.20
2022-08-07T03:18:59.197Z,1.47
2022-08-07T03:21:26.753Z,2.07
2022-08-07T03:24:20.228Z,1.43
2022-08-07T03:26:58.333Z,1.20
2022-08-07T03:29:28.220Z,1.30
2022-08-07T03:31:56.884Z,1.30
2022-08-07T03:34:27.284Z,1.53
2022-08-07T03:36:54.818Z,1.20
2022-08-07T03:39:46.144Z,1.40
2022-08-07T03:42:13.731Z,1.40
2022-08-07T03:44:40.751Z,1.60
2022-08-07T03:47:12.959Z,1.20
2022-08-07T03:49:51.972Z,1.30
2022-08-07T03:52:22.773Z,1.37
2022-08-07T03:54:58.953Z,1.40
2022-08-07T03:58:34.194Z,1.20
2022-08-07T04:00:21.025Z,1.50
2022-08-07T04:02:56.681Z,1.50
2022-08-07T04:05:28.619Z,1.60
2022-08-07T04:08:06.911Z,1.40
2022-08-07T04:10:38.865Z,1.40
2022-08-07T04:13:07.658Z,1.30
2022-08-07T04:15:45.367Z,1.70
2022-08-07T04:18:57.083Z,1.40
2022-08-07T04:21:00.611Z,1.30
2022-08-07T04:23:43.234Z,1.30
2022-08-07T04:26:14.530Z,1.20
2022-08-07T04:28:43.963Z,1.20
2022-08-07T04:31:19.703Z,1.40
2022-08-07T04:33:47.364Z,1.43
2022-08-07T04:36:22.709Z,1.50
2022-08-07T04:38:52.969Z,1.43
2022-08-07T04:41:19.602Z,1.47
2022-08-07T04:44:12.023Z,1.43
2022-08-07T04:47:04.092Z,1.60
2022-08-07T04:50:10.864Z,1.40
2022-08-07T04:53:05.003Z,1.43
2022-08-07T04:58:15.262Z,1.57
2022-08-07T04:59:17.263Z,1.37
2022-08-07T05:01:47.357Z,1.60
2022-08-07T05:04:30.656Z,1.43
2022-08-07T05:07:19.653Z,1.43
2022-08-07T05:10:23.282Z,1.60
2022-08-07T05:12:58.630Z,1.60
2022-08-07T05:15:38.799Z,1.60
2022-08-07T05:18:11.961Z,1.40
2022-08-07T05:20:50.888Z,1.60
2022-08-07T05:23:29.867Z,1.43
2022-08-07T05:26:13.447Z,1.33
2022-08-07T05:28:46.477Z,1.50
2022-08-07T05:31:19.103Z,1.50
2022-08-07T05:33:51.313Z,2.17
2022-08-07T05:36:35.382Z,1.53
2022-08-07T05:40:07.040Z,1.50
2022-08-07T05:42:02.322Z,1.20
2022-08-07T05:44:30.932Z,1.50
2022-08-07T05:46:58.143Z,1.60
2022-08-07T05:49:26.949Z,1.27
2022-08-07T05:52:08.323Z,1.30
2022-08-07T05:54:44.528Z,1.60
2022-08-07T05:57:21.039Z,1.20
2022-08-07T05:59:57.690Z,1.17
2022-08-07T06:02:29.255Z,1.10
2022-08-07T06:05:01.887Z,1.10
2022-08-07T06:08:09.275Z,1.30
2022-08-07T06:10:18.302Z,1.13
2022-08-07T06:12:46.034Z,1.10
2022-08-07T06:15:16.194Z,1.10
2022-08-07T06:17:53.518Z,1.30
2022-08-07T06:20:31.901Z,1.10
2022-08-07T06:23:46.826Z,1.10
2022-08-07T06:25:58.778Z,1.00
2022-08-07T06:28:27.636Z,1.10
2022-08-07T06:30:58.140Z,0.97
2022-08-07T06:33:25.359Z,1.00
2022-08-07T06:36:13.531Z,0.97
2022-08-07T06:38:38.536Z,1.10
2022-08-07T06:41:09.951Z,1.00
2022-08-07T06:43:46.465Z,1.20
2022-08-07T06:46:31.307Z,0.90
2022-08-07T06:49:04.042Z,0.93
2022-08-07T06:51:34.029Z,1.10
2022-08-07T06:55:27.461Z,0.87
2022-08-07T06:56:55.015Z,0.80
2022-08-07T07:00:14.488Z,1.27
2022-08-07T07:02:54.289Z,0.83
2022-08-07T07:05:08.457Z,0.93
2022-08-07T07:07:59.735Z,1.03
2022-08-07T07:10:35.688Z,0.80
2022-08-07T07:13:09.957Z,1.00
2022-08-07T07:15:43.290Z,1.00
2022-08-07T07:18:19.127Z,0.83
2022-08-07T07:21:13.652Z,0.80
2022-08-07T07:24:10.247Z,0.87
2022-08-07T07:26:38.027Z,0.90
2022-08-07T07:29:40.434Z,0.90
2022-08-07T07:32:05.667Z,0.87
2022-08-07T07:34:36.362Z,0.80
2022-08-07T07:37:22.193Z,0.60
2022-08-07T07:39:58.047Z,0.90
2022-08-07T07:42:32.957Z,0.93
2022-08-07T07:45:05.894Z,0.80
2022-08-07T07:47:51.870Z,0.80
2022-08-07T07:50:35.902Z,0.67
2022-08-07T07:53:20.232Z,0.80
2022-08-07T07:55:57.408Z,0.80
2022-08-07T07:58:29.299Z,0.70
2022-08-07T08:00:57.958Z,0.93
2022-08-07T08:04:06.221Z,1.10
2022-08-07T08:06:13.165Z,0.70
2022-08-07T08:08:41.926Z,0.90
2022-08-07T08:11:16.082Z,0.97
2022-08-07T08:13:53.316Z,0.73
2022-08-07T08:16:26.223Z,0.83
2022-08-07T08:18:58.172Z,0.80
2022-08-07T08:21:59.092Z,0.80
2022-08-07T08:25:04.727Z,1.07
2022-08-07T08:27:56.565Z,0.70
2022-08-07T08:30:25.494Z,1.10
2022-08-07T08:32:59.433Z,0.70
2022-08-07T08:35:28.745Z,0.73
2022-08-07T08:38:03.209Z,0.83
2022-08-07T08:40:43.898Z,1.00
2022-08-07T08:43:19.915Z,0.90
2022-08-07T08:46:08.982Z,0.90
2022-08-07T08:48:38.742Z,0.80
2022-08-07T08:51:29.546Z,0.70
2022-08-07T08:54:17.770Z,0.80
2022-08-07T08:56:49.708Z,1.00
2022-08-07T08:59:54.439Z,0.83
2022-08-07T09:02:39.084Z,0.80
2022-08-07T09:05:36.647Z,0.80
2022-08-07T09:08:29.024Z,0.70
2022-08-07T09:10:58.526Z,0.70
2022-08-07T09:13:56.293Z,0.60
2022-08-07T09:16:30.941Z,0.82
2022-08-07T09:19:53.218Z,0.77
2022-08-07T09:24:28.170Z,0.83
2022-08-07T09:25:14.647Z,0.85
2022-08-07T09:28:03.865Z,0.65
2022-08-07T09:30:54.546Z,0.73
2022-08-07T09:33:56.870Z,0.80
2022-08-07T09:36:51.663Z,0.82
2022-08-07T09:39:57.923Z,0.73
2022-08-07T09:42:38.851Z,0.80
2022-08-07T09:47:24.046Z,0.70
2022-08-07T09:48:29.742Z,0.77
2022-08-07T09:52:16.701Z,0.90
2022-08-07T09:55:00.661Z,0.65
2022-08-07T09:57:56.023Z,0.60
2022-08-07T10:00:32.125Z,0.73
2022-08-07T10:04:05.215Z,0.70
2022-08-07T10:06:24.393Z,0.70
2022-08-07T10:09:00.203Z,1.00
2022-08-07T10:12:01.517Z,0.70
2022-08-07T10:14:34.312Z,0.80
2022-08-07T10:18:00.399Z,0.80
2022-08-07T10:20:44.303Z,0.80
2022-08-07T10:24:05.621Z,0.90
2022-08-07T10:26:34.944Z,0.80
2022-08-07T10:29:26.431Z,0.73
2022-08-07T10:32:36.752Z,0.70
2022-08-07T10:35:26.599Z,0.80
2022-08-07T10:38:48.362Z,0.77
2022-08-07T10:41:51.470Z,1.10
2022-08-07T10:44:28.800Z,0.90
2022-08-07T10:47:53.074Z,0.80
2022-08-07T10:50:44.874Z,0.80
2022-08-07T10:53:28.083Z,0.70
2022-08-07T10:56:46.073Z,0.80
2022-08-07T10:59:23.053Z,0.80
2022-08-07T11:02:04.973Z,0.77
2022-08-07T11:05:16.154Z,0.82
2022-08-07T11:07:59.128Z,1.08
2022-08-07T11:10:39.763Z,0.90
2022-08-07T11:14:43.662Z,0.85
2022-08-07T11:16:31.602Z,0.80
2022-08-07T11:19:09.445Z,0.90
2022-08-07T11:22:02.184Z,0.55
2022-08-07T11:24:38.989Z,0.50
2022-08-07T11:28:01.931Z,0.80
2022-08-07T11:30:29.075Z,0.60
2022-08-07T11:33:14.188Z,0.60
2022-08-07T11:36:20.379Z,0.73
2022-08-07T11:39:09.423Z,0.77
2022-08-07T11:42:02.036Z,0.90
2022-08-07T11:44:52.730Z,0.80
2022-08-07T11:47:59.540Z,0.80
2022-08-07T11:50:44.667Z,0.88
2022-08-07T11:54:00.339Z,0.77
2022-08-07T11:56:38.035Z,1.05
2022-08-07T12:00:12.560Z,0.77
2022-08-07T12:02:56.512Z,0.70
2022-08-07T12:05:41.662Z,0.60
2022-08-07T12:08:31.860Z,0.90
2022-08-07T12:11:21.102Z,0.80
2022-08-07T12:14:01.234Z,0.70
2022-08-07T12:16:31.571Z,0.80
2022-08-07T12:19:14.674Z,0.60
2022-08-07T12:22:38.056Z,0.90
2022-08-07T12:26:05.639Z,0.60
2022-08-07T12:28:30.797Z,2.25
2022-08-07T12:31:05.686Z,1.23
2022-08-07T12:34:01.251Z,0.73
2022-08-07T12:36:32.964Z,0.73
2022-08-07T12:39:09.486Z,0.80
2022-08-07T12:41:53.612Z,0.75
2022-08-07T12:44:21.723Z,1.10
2022-08-07T12:47:10.779Z,0.70
2022-08-07T12:49:52.843Z,0.90
2022-08-07T12:52:34.532Z,0.70
2022-08-07T12:55:17.423Z,0.80
2022-08-07T12:58:00.927Z,0.70
2022-08-07T13:00:56.983Z,0.85
2022-08-07T13:03:54.931Z,0.82
2022-08-07T13:07:02.920Z,0.80
2022-08-07T13:10:28.777Z,0.75
2022-08-07T13:13:07.179Z,0.82
2022-08-07T13:15:51.159Z,0.60
2022-08-07T13:18:54.664Z,0.85
2022-08-07T13:21:50.359Z,0.70
2022-08-07T13:24:34.495Z,0.75
2022-08-07T13:27:06.555Z,0.70
2022-08-07T13:29:42.373Z,1.25
2022-08-07T13:32:32.351Z,1.10
2022-08-07T13:35:08.692Z,0.93
2022-08-07T13:38:03.516Z,0.85
2022-08-07T13:40:42.452Z,0.60
2022-08-07T13:43:12.913Z,0.77
2022-08-07T13:46:12.108Z,0.60
2022-08-07T13:48:35.102Z,0.70
2022-08-07T13:51:28.058Z,0.80
2022-08-07T13:54:01.972Z,0.77
2022-08-07T13:56:35.912Z,0.60
2022-08-07T13:59:17.491Z,0.80
2022-08-07T14:02:03.677Z,0.90
2022-08-07T14:04:36.097Z,0.60
2022-08-07T14:07:09.277Z,0.60
2022-08-07T14:10:01.325Z,1.10
2022-08-07T14:12:41.690Z,0.95
2022-08-07T14:15:18.644Z,0.80
2022-08-07T14:18:15.989Z,1.15
2022-08-07T14:20:49.137Z,1.10
2022-08-07T14:23:31.610Z,1.35
2022-08-07T14:26:30.417Z,0.95
2022-08-07T14:29:08.754Z,1.00
2022-08-07T14:31:42.752Z,0.70
2022-08-07T14:34:29.238Z,0.80
2022-08-07T14:36:56.699Z,0.88
2022-08-07T14:40:18.045Z,0.90
2022-08-07T14:42:18.862Z,0.70
2022-08-07T14:44:59.850Z,1.08
2022-08-07T14:47:44.353Z,0.90
2022-08-07T14:50:19.783Z,0.88
2022-08-07T14:52:47.851Z,0.90
2022-08-07T14:55:17.554Z,0.68
2022-08-07T15:00:37.230Z,0.80
2022-08-07T15:03:19.034Z,0.80
2022-08-07T15:05:55.205Z,0.60
2022-08-07T15:08:49.884Z,0.70
2022-08-07T15:11:52.858Z,0.90
2022-08-07T15:14:16.530Z,0.80
2022-08-07T15:22:53.690Z,0.70
2022-08-07T15:25:25.843Z,0.70
2022-08-07T15:28:32.278Z,1.02
2022-08-07T15:31:05.731Z,0.88
2022-08-07T15:37:02.812Z,0.60
2022-08-07T15:39:14.135Z,0.70
2022-08-07T15:42:46.569Z,0.80
2022-08-07T15:44:52.022Z,0.90
2022-08-07T15:47:21.045Z,0.90
2022-08-07T15:50:12.425Z,0.73
2022-08-07T15:53:08.988Z,0.80
2022-08-07T15:56:01.737Z,0.90
2022-08-07T15:58:35.703Z,0.80
2022-08-07T16:01:06.379Z,0.80
2022-08-07T16:03:46.962Z,0.90
2022-08-07T16:06:16.878Z,0.77
2022-08-07T16:08:47.327Z,0.93
2022-08-07T16:12:00.773Z,0.85
2022-08-07T16:14:34.283Z,0.70
2022-08-07T16:17:14.923Z,0.68
2022-08-07T16:19:59.298Z,0.80
2022-08-07T16:22:33.647Z,0.90
2022-08-07T16:25:55.555Z,0.70
2022-08-07T16:30:07.389Z,0.75
2022-08-07T16:31:51.477Z,0.80
2022-08-07T16:34:24.655Z,0.75
2022-08-07T16:37:02.361Z,0.80
2022-08-07T16:39:49.077Z,1.63
2022-08-07T16:42:29.384Z,0.95
2022-08-07T16:45:15.292Z,0.73
2022-08-07T16:48:02.692Z,0.70
2022-08-07T16:51:07.369Z,0.93
2022-08-07T16:54:06.208Z,0.90
2022-08-07T16:56:55.140Z,1.15
2022-08-07T16:59:51.153Z,0.90
2022-08-07T17:02:53.065Z,0.98
2022-08-07T17:06:19.876Z,1.00
2022-08-07T17:09:09.378Z,0.93
2022-08-07T17:12:05.170Z,0.70
2022-08-07T17:14:56.227Z,0.77
2022-08-07T17:17:47.331Z,0.90
2022-08-07T17:20:23.308Z,0.82
2022-08-07T17:23:11.584Z,0.80
2022-08-07T17:26:22.948Z,0.80
2022-08-07T17:29:09.589Z,0.82
2022-08-07T17:32:06.366Z,0.88
2022-08-07T17:35:32.881Z,0.73
2022-08-07T17:38:09.678Z,0.60
2022-08-07T17:42:04.182Z,0.90
2022-08-07T17:44:14.194Z,0.80
2022-08-07T17:47:02.895Z,0.90
2022-08-07T17:50:00.802Z,1.10
2022-08-07T17:52:39.726Z,0.98
2022-08-07T17:55:15.978Z,0.80
2022-08-07T17:58:30.174Z,0.98
2022-08-07T18:00:59.530Z,0.90
2022-08-07T18:04:04.127Z,0.70
2022-08-07T18:06:38.393Z,1.10
2022-08-07T18:09:06.328Z,0.85
2022-08-07T18:12:17.715Z,1.10
2022-08-07T18:14:49.679Z,1.27
2022-08-07T18:18:45.313Z,0.98
2022-08-07T18:21:08.044Z,1.10
2022-08-07T18:24:33.733Z,1.02
2022-08-07T18:27:38.874Z,0.90
2022-08-07T18:30:30.884Z,1.20
2022-08-07T18:33:25.018Z,1.02
2022-08-07T18:36:15.186Z,1.13
2022-08-07T18:40:06.408Z,1.00
2022-08-07T18:42:13.139Z,0.90
2022-08-07T18:45:43.341Z,0.90
2022-08-07T18:48:09.070Z,1.10
2022-08-07T18:50:57.159Z,0.90
2022-08-07T18:53:55.447Z,0.93
2022-08-07T18:56:57.977Z,1.40
2022-08-07T19:00:33.239Z,1.30
2022-08-07T19:03:11.981Z,1.27
2022-08-07T19:06:04.333Z,1.10
2022-08-07T19:08:59.759Z,1.20
2022-08-07T19:11:37.399Z,0.73
2022-08-07T19:14:17.159Z,1.20
2022-08-07T19:17:05.461Z,1.23
2022-08-07T19:19:51.300Z,1.13
2022-08-07T19:22:45.080Z,1.33
2022-08-07T19:26:22.808Z,1.10
2022-08-07T19:28:57.515Z,1.10
2022-08-07T19:31:40.580Z,1.10
2022-08-07T19:34:02.830Z,1.25
2022-08-07T19:36:33.399Z,0.98
2022-08-07T19:39:09.295Z,1.10
2022-08-07T19:42:05.738Z,1.30
2022-08-07T19:44:37.651Z,1.10
2022-08-07T19:47:10.764Z,0.88
2022-08-07T19:49:56.757Z,1.20
2022-08-07T19:52:28.538Z,1.30
2022-08-07T19:54:57.286Z,1.20
2022-08-07T19:58:00.063Z,1.50
2022-08-07T20:00:28.180Z,1.10
2022-08-07T20:03:01.789Z,1.40
2022-08-07T20:05:59.760Z,1.42
2022-08-07T20:08:24.913Z,1.20
2022-08-07T20:11:03.772Z,1.23
2022-08-07T20:13:46.143Z,1.20
2022-08-07T20:16:34.874Z,1.20
2022-08-07T20:19:05.825Z,1.30
2022-08-07T20:21:41.791Z,1.25
2022-08-07T20:24:17.891Z,0.90
2022-08-07T20:26:52.157Z,1.33
2022-08-07T20:29:49.551Z,1.38
2022-08-07T20:32:25.100Z,1.20
2022-08-07T20:34:55.860Z,1.10
2022-08-07T20:37:37.068Z,1.33
2022-08-07T20:40:31.459Z,1.27
2022-08-07T20:43:02.476Z,1.20
2022-08-07T20:45:32.818Z,1.40
2022-08-07T20:48:28.406Z,1.20
2022-08-07T20:50:57.370Z,1.30
2022-08-07T20:53:25.857Z,1.30
2022-08-07T20:56:11.568Z,1.25
2022-08-07T20:58:41.828Z,1.43
2022-08-07T21:01:19.956Z,1.37
2022-08-07T21:04:13.132Z,1.55
2022-08-07T21:06:46.044Z,1.43
2022-08-07T21:09:20.125Z,1.40
2022-08-07T21:11:55.626Z,1.60
2022-08-07T21:14:32.143Z,1.43
2022-08-07T21:18:02.091Z,1.27
2022-08-07T21:20:05.323Z,1.30
2022-08-07T21:22:38.542Z,1.60
2022-08-07T21:25:25.662Z,1.40
2022-08-07T21:28:07.888Z,1.00
2022-08-07T21:31:49.193Z,1.37
2022-08-07T21:34:46.344Z,1.20
2022-08-07T21:37:22.570Z,1.27
2022-08-07T21:40:02.676Z,1.37
2022-08-07T21:42:55.917Z,1.10
2022-08-07T21:46:07.941Z,1.20
2022-08-07T21:48:55.958Z,1.20
2022-08-07T21:51:50.932Z,1.30
2022-08-07T21:54:45.979Z,1.20
2022-08-07T21:57:44.842Z,1.03
2022-08-07T22:00:25.272Z,1.43
2022-08-07T22:03:17.490Z,1.70
2022-08-07T22:06:30.516Z,1.20
2022-08-07T22:09:07.970Z,1.43
2022-08-07T22:12:05.699Z,1.50
2022-08-07T22:14:36.885Z,1.60
2022-08-07T22:17:05.047Z,1.57
2022-08-07T22:20:04.560Z,1.63
2022-08-07T22:22:44.779Z,1.70
2022-08-07T22:25:27.507Z,1.47
2022-08-07T22:28:31.622Z,1.47
2022-08-07T22:31:05.652Z,1.53
2022-08-07T22:33:56.269Z,1.40
2022-08-07T22:36:38.483Z,1.40
2022-08-07T22:39:14.106Z,1.10
2022-08-07T22:42:03.772Z,1.77
2022-08-07T22:44:58.943Z,1.50
2022-08-07T22:47:49.376Z,1.30
2022-08-07T22:50:47.111Z,1.50
2022-08-07T22:54:05.207Z,1.77
2022-08-07T22:56:34.514Z,1.50
2022-08-07T22:59:32.601Z,1.43
2022-08-07T23:02:22.523Z,1.27
2022-08-07T23:06:15.382Z,1.50
2022-08-07T23:08:46.734Z,1.40
2022-08-07T23:11:35.023Z,1.40
2022-08-07T23:14:49.106Z,1.43
2022-08-07T23:17:55.622Z,1.40
2022-08-07T23:20:40.577Z,1.80
2022-08-07T23:24:06.527Z,1.53
2022-08-07T23:26:11.949Z,1.60
2022-08-07T23:29:43.817Z,1.27
2022-08-07T23:34:21.643Z,1.60
2022-08-07T23:35:10.292Z,1.37
2022-08-07T23:38:36.936Z,1.60
2022-08-07T23:41:33.043Z,1.70
2022-08-07T23:44:18.487Z,1.37
2022-08-07T23:47:02.028Z,1.30
2022-08-07T23:49:50.838Z,1.50
2022-08-07T23:53:00.073Z,1.57
2022-08-07T23:55:51.695Z,1.70
2022-08-07T23:58:42.375Z,1.53
